sensor_id;sensor_type;location;lat;lon;timestamp;pressure;altitude;pressure_sealevel;temperature;humidity
58245;BME280;44550;43.864;25.986;2022-09-25T00:00:51;101425.97;;;13.61;52.63
58245;BME280;44550;43.864;25.986;2022-09-25T00:04:52;101454.91;;;13.74;53.03
58245;BME280;44550;43.864;25.986;2022-09-25T00:08:52;101445.34;;;13.85;52.62
58245;BME280;44550;43.864;25.986;2022-09-25T00:12:53;101451.47;;;13.79;56.07
58245;BME280;44550;43.864;25.986;2022-09-25T00:16:53;101434.53;;;13.33;57.58
58245;BME280;44550;43.864;25.986;2022-09-25T00:20:59;101462.69;;;13.52;57.17
58245;BME280;44550;43.864;25.986;2022-09-25T00:24:59;101440.84;;;13.62;56.46
58245;BME280;44550;43.864;25.986;2022-09-25T00:29:03;101454.03;;;13.66;56.89
58245;BME280;44550;43.864;25.986;2022-09-25T00:33:03;101438.22;;;13.58;57.51
58245;BME280;44550;43.864;25.986;2022-09-25T00:37:03;101439.09;;;13.63;57.07
58245;BME280;44550;43.864;25.986;2022-09-25T00:41:05;101430.34;;;13.58;57.05
58245;BME280;44550;43.864;25.986;2022-09-25T00:45:12;101429.47;;;13.59;57.20
58245;BME280;44550;43.864;25.986;2022-09-25T00:49:15;101412.78;;;13.55;57.08
58245;BME280;44550;43.864;25.986;2022-09-25T00:53:19;101425.09;;;13.62;57.22
58245;BME280;44550;43.864;25.986;2022-09-25T00:57:22;101435.59;;;13.62;57.52
58245;BME280;44550;43.864;25.986;2022-09-25T01:01:25;101409.28;;;13.53;57.48
58245;BME280;44550;43.864;25.986;2022-09-25T01:05:28;101399.63;;;13.54;57.54
58245;BME280;44550;43.864;25.986;2022-09-25T01:09:29;101419.03;;;13.83;57.10
58245;BME280;44550;43.864;25.986;2022-09-25T01:13:29;101412.16;;;14.12;56.07
58245;BME280;44550;43.864;25.986;2022-09-25T01:17:36;101420.78;;;13.77;56.62
58245;BME280;44550;43.864;25.986;2022-09-25T01:21:42;101397.63;;;13.11;57.74
58245;BME280;44550;43.864;25.986;2022-09-25T01:25:55;101417.63;;;12.97;58.25
58245;BME280;44550;43.864;25.986;2022-09-25T01:30:06;101413.22;;;12.91;58.35
58245;BME280;44550;43.864;25.986;2022-09-25T01:34:12;101405.25;;;12.84;59.05
58245;BME280;44550;43.864;25.986;2022-09-25T01:38:24;101400.00;;;12.84;59.11
58245;BME280;44550;43.864;25.986;2022-09-25T01:42:35;101392.97;;;12.81;59.67
58245;BME280;44550;43.864;25.986;2022-09-25T01:46:41;101404.66;;;13.20;59.58
58245;BME280;44550;43.864;25.986;2022-09-25T01:50:45;101398.47;;;13.10;60.20
58245;BME280;44550;43.864;25.986;2022-09-25T01:54:49;101404.66;;;13.20;60.72
58245;BME280;44550;43.864;25.986;2022-09-25T01:58:53;101400.38;;;13.25;60.46
58245;BME280;44550;43.864;25.986;2022-09-25T02:03:01;101387.97;;;13.09;60.78
58245;BME280;44550;43.864;25.986;2022-09-25T02:07:08;101405.66;;;13.31;60.94
58245;BME280;44550;43.864;25.986;2022-09-25T02:11:09;101408.34;;;13.47;61.25
58245;BME280;44550;43.864;25.986;2022-09-25T02:15:15;101425.84;;;13.40;62.38
58245;BME280;44550;43.864;25.986;2022-09-25T02:19:19;101416.19;;;13.39;62.21
58245;BME280;44550;43.864;25.986;2022-09-25T02:23:42;101417.94;;;13.35;63.02
58245;BME280;44550;43.864;25.986;2022-09-25T02:27:43;101411.84;;;13.44;63.44
58245;BME280;44550;43.864;25.986;2022-09-25T02:31:47;101411.06;;;13.60;62.78
58245;BME280;44550;43.864;25.986;2022-09-25T02:35:51;101408.38;;;13.48;63.46
58245;BME280;44550;43.864;25.986;2022-09-25T02:39:53;101408.28;;;13.31;64.37
58245;BME280;44550;43.864;25.986;2022-09-25T02:44:00;101410.13;;;13.45;64.96
58245;BME280;44550;43.864;25.986;2022-09-25T02:48:10;101388.88;;;13.15;65.64
58245;BME280;44550;43.864;25.986;2022-09-25T02:52:18;101397.53;;;12.99;66.54
58245;BME280;44550;43.864;25.986;2022-09-25T02:56:25;101415.13;;;13.12;66.69
58245;BME280;44550;43.864;25.986;2022-09-25T03:00:27;101415.81;;;12.88;67.18
58245;BME280;44550;43.864;25.986;2022-09-25T03:04:30;101418.13;;;12.55;68.70
58245;BME280;44550;43.864;25.986;2022-09-25T03:08:39;101417.91;;;12.35;68.94
58245;BME280;44550;43.864;25.986;2022-09-25T03:12:40;101420.66;;;12.44;69.14
58245;BME280;44550;43.864;25.986;2022-09-25T03:16:44;101422.34;;;12.40;69.45
58245;BME280;44550;43.864;25.986;2022-09-25T03:20:45;101421.63;;;12.54;69.47
58245;BME280;44550;43.864;25.986;2022-09-25T03:24:47;101433.13;;;12.66;68.87
58245;BME280;44550;43.864;25.986;2022-09-25T03:28:47;101426.22;;;12.79;68.08
58245;BME280;44550;43.864;25.986;2022-09-25T03:32:46;101434.03;;;12.73;68.06
58245;BME280;44550;43.864;25.986;2022-09-25T03:36:46;101432.25;;;12.66;68.02
58245;BME280;44550;43.864;25.986;2022-09-25T03:40:47;101422.44;;;12.46;68.28
58245;BME280;44550;43.864;25.986;2022-09-25T03:44:47;101442.28;;;12.25;69.18
58245;BME280;44550;43.864;25.986;2022-09-25T03:48:47;101400.78;;;11.87;69.18
58245;BME280;44550;43.864;25.986;2022-09-25T03:52:47;101443.50;;;11.83;70.27
58245;BME280;44550;43.864;25.986;2022-09-25T03:56:49;101440.41;;;11.46;71.43
58245;BME280;44550;43.864;25.986;2022-09-25T04:00:48;101446.00;;;11.14;73.21
58245;BME280;44550;43.864;25.986;2022-09-25T04:04:48;101442.31;;;11.01;73.43
58245;BME280;44550;43.864;25.986;2022-09-25T04:08:49;101450.59;;;11.29;72.76
58245;BME280;44550;43.864;25.986;2022-09-25T04:12:51;101450.91;;;11.49;71.98
58245;BME280;44550;43.864;25.986;2022-09-25T04:16:51;101447.75;;;11.74;70.78
58245;BME280;44550;43.864;25.986;2022-09-25T04:20:51;101445.03;;;11.67;70.58
58245;BME280;44550;43.864;25.986;2022-09-25T04:24:50;101447.41;;;11.48;70.80
58245;BME280;44550;43.864;25.986;2022-09-25T04:28:53;101435.13;;;11.43;70.91
58245;BME280;44550;43.864;25.986;2022-09-25T04:32:53;101462.31;;;11.52;71.37
58245;BME280;44550;43.864;25.986;2022-09-25T04:37:08;101455.44;;;11.61;71.72
58245;BME280;44550;43.864;25.986;2022-09-25T04:41:10;101453.13;;;11.82;72.17
58245;BME280;44550;43.864;25.986;2022-09-25T04:45:14;101454.06;;;11.87;72.09
58245;BME280;44550;43.864;25.986;2022-09-25T04:49:15;101432.91;;;11.73;73.06
58245;BME280;44550;43.864;25.986;2022-09-25T04:53:16;101429.19;;;11.56;74.23
58245;BME280;44550;43.864;25.986;2022-09-25T04:57:18;101432.81;;;11.66;74.36
58245;BME280;44550;43.864;25.986;2022-09-25T05:01:41;101441.69;;;11.79;74.99
58245;BME280;44550;43.864;25.986;2022-09-25T05:05:40;101434.34;;;12.18;75.26
58245;BME280;44550;43.864;25.986;2022-09-25T05:09:40;101436.47;;;12.53;73.68
58245;BME280;44550;43.864;25.986;2022-09-25T05:13:40;101429.56;;;12.60;72.93
58245;BME280;44550;43.864;25.986;2022-09-25T05:17:44;101437.38;;;12.55;72.75
58245;BME280;44550;43.864;25.986;2022-09-25T05:21:44;101414.38;;;12.31;73.13
58245;BME280;44550;43.864;25.986;2022-09-25T05:25:50;101436.41;;;12.47;72.61
58245;BME280;44550;43.864;25.986;2022-09-25T05:29:51;101437.03;;;12.25;72.49
58245;BME280;44550;43.864;25.986;2022-09-25T05:33:53;101444.22;;;11.71;74.95
58245;BME280;44550;43.864;25.986;2022-09-25T05:37:53;101432.88;;;11.70;75.78
58245;BME280;44550;43.864;25.986;2022-09-25T05:41:53;101417.22;;;11.78;75.86
58245;BME280;44550;43.864;25.986;2022-09-25T05:45:54;101435.06;;;12.05;76.18
58245;BME280;44550;43.864;25.986;2022-09-25T05:49:56;101435.19;;;12.14;75.65
58245;BME280;44550;43.864;25.986;2022-09-25T05:53:56;101441.59;;;12.41;73.91
58245;BME280;44550;43.864;25.986;2022-09-25T05:58:00;101426.19;;;12.72;73.45
58245;BME280;44550;43.864;25.986;2022-09-25T06:02:03;101424.66;;;13.00;70.93
58245;BME280;44550;43.864;25.986;2022-09-25T06:06:06;101429.25;;;13.25;69.77
58245;BME280;44550;43.864;25.986;2022-09-25T06:10:07;101402.22;;;13.45;67.33
58245;BME280;44550;43.864;25.986;2022-09-25T06:14:07;101431.41;;;14.06;64.44
58245;BME280;44550;43.864;25.986;2022-09-25T06:18:09;101436.75;;;14.27;62.94
58245;BME280;44550;43.864;25.986;2022-09-25T06:22:11;101425.47;;;14.85;62.89
58245;BME280;44550;43.864;25.986;2022-09-25T06:26:10;101424.53;;;15.34;60.73
58245;BME280;44550;43.864;25.986;2022-09-25T06:30:13;101434.97;;;15.87;57.28
58245;BME280;44550;43.864;25.986;2022-09-25T06:34:12;101436.56;;;16.20;54.97
58245;BME280;44550;43.864;25.986;2022-09-25T06:38:15;101420.72;;;16.19;53.36
58245;BME280;44550;43.864;25.986;2022-09-25T06:42:18;101429.44;;;16.39;53.91
58245;BME280;44550;43.864;25.986;2022-09-25T06:46:22;101403.19;;;16.13;53.36
58245;BME280;44550;43.864;25.986;2022-09-25T06:50:21;101427.81;;;16.12;53.38
58245;BME280;44550;43.864;25.986;2022-09-25T06:54:24;101437.50;;;16.09;54.09
58245;BME280;44550;43.864;25.986;2022-09-25T06:58:28;101401.34;;;16.25;53.32
58245;BME280;44550;43.864;25.986;2022-09-25T07:02:28;101432.75;;;16.72;52.30
58245;BME280;44550;43.864;25.986;2022-09-25T07:06:47;101406.97;;;17.02;51.57
58245;BME280;44550;43.864;25.986;2022-09-25T07:10:53;101441.16;;;17.20;51.57
58245;BME280;44550;43.864;25.986;2022-09-25T07:14:53;101454.03;;;17.55;53.45
58245;BME280;44550;43.864;25.986;2022-09-25T07:18:54;101449.44;;;17.73;52.14
58245;BME280;44550;43.864;25.986;2022-09-25T07:22:58;101468.09;;;18.35;50.15
58245;BME280;44550;43.864;25.986;2022-09-25T07:27:19;101463.97;;;18.77;47.29
58245;BME280;44550;43.864;25.986;2022-09-25T07:31:22;101448.72;;;19.44;45.38
58245;BME280;44550;43.864;25.986;2022-09-25T07:35:27;101453.97;;;19.47;44.46
58245;BME280;44550;43.864;25.986;2022-09-25T07:39:34;101447.19;;;19.31;44.62
58245;BME280;44550;43.864;25.986;2022-09-25T07:43:37;101440.88;;;18.85;45.41
58245;BME280;44550;43.864;25.986;2022-09-25T07:47:39;101443.41;;;18.93;47.11
58245;BME280;44550;43.864;25.986;2022-09-25T07:51:54;101407.34;;;19.34;47.27
58245;BME280;44550;43.864;25.986;2022-09-25T07:55:59;101431.44;;;19.69;47.58
58245;BME280;44550;43.864;25.986;2022-09-25T08:00:07;101369.75;;;19.57;46.31
58245;BME280;44550;43.864;25.986;2022-09-25T08:04:07;101360.97;;;19.55;45.72
58245;BME280;44550;43.864;25.986;2022-09-25T08:08:07;101383.78;;;19.65;45.47
58245;BME280;44550;43.864;25.986;2022-09-25T08:12:09;101406.03;;;20.00;43.74
58245;BME280;44550;43.864;25.986;2022-09-25T08:16:15;101357.44;;;19.96;44.04
58245;BME280;44550;43.864;25.986;2022-09-25T08:20:17;101397.72;;;20.15;43.18
58245;BME280;44550;43.864;25.986;2022-09-25T08:24:20;101379.97;;;19.78;43.55
58245;BME280;44550;43.864;25.986;2022-09-25T08:28:25;101392.59;;;20.07;44.71
58245;BME280;44550;43.864;25.986;2022-09-25T08:32:27;101389.31;;;20.35;45.41
58245;BME280;44550;43.864;25.986;2022-09-25T08:36:27;101342.28;;;20.40;44.09
58245;BME280;44550;43.864;25.986;2022-09-25T08:40:28;101370.34;;;20.86;43.17
58245;BME280;44550;43.864;25.986;2022-09-25T08:44:35;101375.69;;;21.20;42.17
58245;BME280;44550;43.864;25.986;2022-09-25T08:48:52;101359.03;;;21.14;41.27
58245;BME280;44550;43.864;25.986;2022-09-25T08:53:04;101373.59;;;21.64;40.87
58245;BME280;44550;43.864;25.986;2022-09-25T09:01:25;101331.59;;;21.74;38.33
58245;BME280;44550;43.864;25.986;2022-09-25T09:05:30;101360.56;;;21.85;38.28
58245;BME280;44550;43.864;25.986;2022-09-25T09:09:38;101353.91;;;21.99;38.81
58245;BME280;44550;43.864;25.986;2022-09-25T09:13:42;101340.72;;;21.95;39.87
58245;BME280;44550;43.864;25.986;2022-09-25T09:17:48;101359.66;;;21.86;40.50
58245;BME280;44550;43.864;25.986;2022-09-25T09:22:03;101345.34;;;22.18;39.09
58245;BME280;44550;43.864;25.986;2022-09-25T09:26:12;101338.63;;;22.04;40.79
58245;BME280;44550;43.864;25.986;2022-09-25T09:30:17;101301.06;;;22.15;39.77
58245;BME280;44550;43.864;25.986;2022-09-25T09:34:33;101311.84;;;22.39;39.14
58245;BME280;44550;43.864;25.986;2022-09-25T09:39:05;101320.63;;;22.41;38.01
58245;BME280;44550;43.864;25.986;2022-09-25T09:43:31;101265.72;;;22.09;37.26
58245;BME280;44550;43.864;25.986;2022-09-25T09:47:43;101283.69;;;22.02;37.23
58245;BME280;44550;43.864;25.986;2022-09-25T09:52:02;101306.44;;;22.40;37.94
58245;BME280;44550;43.864;25.986;2022-09-25T09:56:17;101290.72;;;22.59;36.86
58245;BME280;44550;43.864;25.986;2022-09-25T10:00:21;101312.38;;;22.75;37.38
58245;BME280;44550;43.864;25.986;2022-09-25T10:04:25;101314.13;;;23.01;36.58
58245;BME280;44550;43.864;25.986;2022-09-25T10:08:28;101295.44;;;23.03;37.06
58245;BME280;44550;43.864;25.986;2022-09-25T10:12:32;101258.63;;;23.12;35.68
58245;BME280;44550;43.864;25.986;2022-09-25T10:16:35;101273.34;;;23.23;35.71
58245;BME280;44550;43.864;25.986;2022-09-25T10:20:40;101266.63;;;23.36;36.14
58245;BME280;44550;43.864;25.986;2022-09-25T10:24:53;101263.75;;;23.64;36.19
58245;BME280;44550;43.864;25.986;2022-09-25T10:29:01;101253.44;;;23.78;35.44
58245;BME280;44550;43.864;25.986;2022-09-25T10:33:10;101215.06;;;23.81;35.56
58245;BME280;44550;43.864;25.986;2022-09-25T10:37:19;101234.97;;;24.16;35.13
58245;BME280;44550;43.864;25.986;2022-09-25T10:41:21;101232.16;;;24.19;33.84
58245;BME280;44550;43.864;25.986;2022-09-25T10:45:31;101232.19;;;24.39;33.64
58245;BME280;44550;43.864;25.986;2022-09-25T10:49:31;101198.38;;;24.18;35.02
58245;BME280;44550;43.864;25.986;2022-09-25T10:54:14;101214.31;;;24.42;33.91
58245;BME280;44550;43.864;25.986;2022-09-25T10:58:19;101194.03;;;24.36;33.42
58245;BME280;44550;43.864;25.986;2022-09-25T11:02:31;101203.56;;;24.64;31.73
58245;BME280;44550;43.864;25.986;2022-09-25T11:06:47;101215.59;;;24.74;32.19
58245;BME280;44550;43.864;25.986;2022-09-25T11:10:51;101178.50;;;24.46;31.68
58245;BME280;44550;43.864;25.986;2022-09-25T11:14:55;101202.31;;;24.91;31.09
58245;BME280;44550;43.864;25.986;2022-09-25T11:19:10;101193.88;;;25.19;30.48
58245;BME280;44550;43.864;25.986;2022-09-25T11:23:28;101206.03;;;25.45;29.42
58245;BME280;44550;43.864;25.986;2022-09-25T11:27:44;101193.09;;;25.55;29.39
58245;BME280;44550;43.864;25.986;2022-09-25T11:32:14;101195.47;;;25.61;28.86
58245;BME280;44550;43.864;25.986;2022-09-25T11:36:26;101179.84;;;25.52;30.30
58245;BME280;44550;43.864;25.986;2022-09-25T11:40:29;101138.63;;;25.37;29.83
58245;BME280;44550;43.864;25.986;2022-09-25T11:44:53;101178.28;;;25.65;29.07
58245;BME280;44550;43.864;25.986;2022-09-25T11:49:03;101161.53;;;25.79;29.39
58245;BME280;44550;43.864;25.986;2022-09-25T11:53:19;101148.28;;;25.95;28.20
58245;BME280;44550;43.864;25.986;2022-09-25T11:57:28;101122.19;;;25.98;28.29
58245;BME280;44550;43.864;25.986;2022-09-25T12:01:35;101150.78;;;26.15;28.07
58245;BME280;44550;43.864;25.986;2022-09-25T12:10:31;101151.41;;;26.38;27.34
58245;BME280;44550;43.864;25.986;2022-09-25T12:14:40;101148.03;;;26.52;27.28
58245;BME280;44550;43.864;25.986;2022-09-25T12:18:58;101122.38;;;26.46;27.13
58245;BME280;44550;43.864;25.986;2022-09-25T12:23:11;101129.72;;;26.60;26.35
58245;BME280;44550;43.864;25.986;2022-09-25T12:27:20;101125.22;;;26.43;27.07
58245;BME280;44550;43.864;25.986;2022-09-25T12:36:06;101129.63;;;26.61;26.84
58245;BME280;44550;43.864;25.986;2022-09-25T12:40:17;101125.34;;;26.90;27.19
58245;BME280;44550;43.864;25.986;2022-09-25T12:44:31;101119.66;;;26.97;26.14
58245;BME280;44550;43.864;25.986;2022-09-25T12:48:36;101094.28;;;26.86;25.76
58245;BME280;44550;43.864;25.986;2022-09-25T12:52:47;101108.97;;;26.95;25.85
58245;BME280;44550;43.864;25.986;2022-09-25T12:56:54;101105.22;;;27.15;25.94
58245;BME280;44550;43.864;25.986;2022-09-25T13:01:00;101105.13;;;27.32;25.35
58245;BME280;44550;43.864;25.986;2022-09-25T13:05:07;101090.69;;;27.65;25.35
58245;BME280;44550;43.864;25.986;2022-09-25T13:09:19;101073.00;;;27.77;25.68
58245;BME280;44550;43.864;25.986;2022-09-25T13:13:25;101087.53;;;27.89;24.81
58245;BME280;44550;43.864;25.986;2022-09-25T13:17:30;101069.09;;;27.97;24.87
58245;BME280;44550;43.864;25.986;2022-09-25T13:21:34;101066.13;;;27.87;25.21
58245;BME280;44550;43.864;25.986;2022-09-25T13:25:41;101071.19;;;27.77;26.22
58245;BME280;44550;43.864;25.986;2022-09-25T13:29:56;101066.38;;;27.52;25.87
58245;BME280;44550;43.864;25.986;2022-09-25T13:34:04;101033.44;;;27.19;26.76
58245;BME280;44550;43.864;25.986;2022-09-25T13:38:18;101066.88;;;27.59;25.79
58245;BME280;44550;43.864;25.986;2022-09-25T13:42:37;101059.88;;;27.56;23.79
58245;BME280;44550;43.864;25.986;2022-09-25T13:46:40;101050.28;;;27.82;24.25
58245;BME280;44550;43.864;25.986;2022-09-25T13:50:48;101059.88;;;27.86;23.94
58245;BME280;44550;43.864;25.986;2022-09-25T13:55:13;101066.66;;;27.78;24.79
58245;BME280;44550;43.864;25.986;2022-09-25T13:59:36;101052.97;;;27.67;25.15
58245;BME280;44550;43.864;25.986;2022-09-25T14:03:46;101043.47;;;27.61;24.26
58245;BME280;44550;43.864;25.986;2022-09-25T14:08:07;101040.75;;;27.47;24.37
58245;BME280;44550;43.864;25.986;2022-09-25T14:12:40;101030.72;;;27.34;25.31
58245;BME280;44550;43.864;25.986;2022-09-25T14:16:44;101041.13;;;27.55;25.19
58245;BME280;44550;43.864;25.986;2022-09-25T14:20:45;101035.22;;;27.64;24.32
58245;BME280;44550;43.864;25.986;2022-09-25T14:24:48;101029.94;;;27.62;24.56
58245;BME280;44550;43.864;25.986;2022-09-25T14:28:50;101023.31;;;27.68;24.62
58245;BME280;44550;43.864;25.986;2022-09-25T14:37:37;101008.47;;;27.62;24.66
58245;BME280;44550;43.864;25.986;2022-09-25T14:42:10;101024.56;;;27.62;23.81
58245;BME280;44550;43.864;25.986;2022-09-25T14:46:19;101016.16;;;27.69;23.61
58245;BME280;44550;43.864;25.986;2022-09-25T14:50:22;100974.56;;;27.46;23.44
58245;BME280;44550;43.864;25.986;2022-09-25T14:54:41;101011.19;;;27.77;23.47
58245;BME280;44550;43.864;25.986;2022-09-25T14:58:48;100955.56;;;27.49;23.23
58245;BME280;44550;43.864;25.986;2022-09-25T15:02:52;100976.56;;;27.42;23.47
58245;BME280;44550;43.864;25.986;2022-09-25T15:06:59;100998.72;;;27.46;24.08
58245;BME280;44550;43.864;25.986;2022-09-25T15:11:11;101005.53;;;27.51;23.93
58245;BME280;44550;43.864;25.986;2022-09-25T15:15:16;100996.22;;;27.43;24.28
58245;BME280;44550;43.864;25.986;2022-09-25T15:19:19;100992.28;;;27.48;26.00
58245;BME280;44550;43.864;25.986;2022-09-25T15:23:22;100998.16;;;27.55;27.35
58245;BME280;44550;43.864;25.986;2022-09-25T15:27:32;100995.75;;;27.50;28.12
58245;BME280;44550;43.864;25.986;2022-09-25T15:31:37;100999.84;;;27.41;30.30
58245;BME280;44550;43.864;25.986;2022-09-25T15:35:52;100977.56;;;27.25;30.73
58245;BME280;44550;43.864;25.986;2022-09-25T15:39:55;100959.59;;;26.96;31.28
58245;BME280;44550;43.864;25.986;2022-09-25T15:44:12;100913.38;;;26.27;32.13
58245;BME280;44550;43.864;25.986;2022-09-25T15:48:24;100973.00;;;25.99;34.07
58245;BME280;44550;43.864;25.986;2022-09-25T15:52:29;100972.00;;;25.84;35.26
58245;BME280;44550;43.864;25.986;2022-09-25T15:56:37;100971.59;;;25.74;36.27
58245;BME280;44550;43.864;25.986;2022-09-25T16:00:57;100943.34;;;25.34;36.54
58245;BME280;44550;43.864;25.986;2022-09-25T16:05:28;100939.53;;;25.03;36.04
58245;BME280;44550;43.864;25.986;2022-09-25T16:10:02;100966.78;;;24.75;37.64
58245;BME280;44550;43.864;25.986;2022-09-25T16:14:17;100969.75;;;24.69;37.84
58245;BME280;44550;43.864;25.986;2022-09-25T16:18:31;100973.09;;;24.55;38.76
58245;BME280;44550;43.864;25.986;2022-09-25T16:22:43;100933.56;;;24.24;39.36
58245;BME280;44550;43.864;25.986;2022-09-25T16:26:44;100976.09;;;24.29;39.33
58245;BME280;44550;43.864;25.986;2022-09-25T16:30:46;100970.75;;;23.89;39.35
58245;BME280;44550;43.864;25.986;2022-09-25T16:34:56;100952.00;;;23.30;40.48
58245;BME280;44550;43.864;25.986;2022-09-25T16:39:21;100950.34;;;22.83;41.97
58245;BME280;44550;43.864;25.986;2022-09-25T16:43:26;100984.56;;;22.95;43.46
58245;BME280;44550;43.864;25.986;2022-09-25T16:47:27;100949.84;;;22.73;43.78
58245;BME280;44550;43.864;25.986;2022-09-25T16:51:37;100943.56;;;22.74;43.37
58245;BME280;44550;43.864;25.986;2022-09-25T16:55:46;100957.34;;;22.64;42.43
58245;BME280;44550;43.864;25.986;2022-09-25T17:00:20;100955.34;;;22.00;43.80
58245;BME280;44550;43.864;25.986;2022-09-25T17:04:24;100978.94;;;21.34;45.78
58245;BME280;44550;43.864;25.986;2022-09-25T17:08:28;100925.84;;;20.50;46.97
58245;BME280;44550;43.864;25.986;2022-09-25T17:12:30;100979.06;;;20.47;47.96
58245;BME280;44550;43.864;25.986;2022-09-25T17:16:33;100948.25;;;20.41;48.52
58245;BME280;44550;43.864;25.986;2022-09-25T17:20:34;100966.91;;;20.38;48.94
58245;BME280;44550;43.864;25.986;2022-09-25T17:24:34;100919.38;;;20.01;49.04
58245;BME280;44550;43.864;25.986;2022-09-25T17:28:38;100957.41;;;20.01;49.69
58245;BME280;44550;43.864;25.986;2022-09-25T17:32:38;100976.78;;;20.03;49.95
58245;BME280;44550;43.864;25.986;2022-09-25T17:36:41;100943.94;;;19.76;50.00
58245;BME280;44550;43.864;25.986;2022-09-25T17:40:49;100972.16;;;19.80;50.49
58245;BME280;44550;43.864;25.986;2022-09-25T17:45:00;100977.84;;;19.65;51.21
58245;BME280;44550;43.864;25.986;2022-09-25T17:48:59;100984.03;;;19.30;51.29
58245;BME280;44550;43.864;25.986;2022-09-25T17:53:00;100980.13;;;18.73;50.94
58245;BME280;44550;43.864;25.986;2022-09-25T17:57:01;100960.50;;;18.41;51.43
58245;BME280;44550;43.864;25.986;2022-09-25T18:01:10;100983.09;;;18.58;51.83
58245;BME280;44550;43.864;25.986;2022-09-25T18:05:14;100983.69;;;18.72;51.63
58245;BME280;44550;43.864;25.986;2022-09-25T18:09:15;100983.84;;;18.64;52.02
58245;BME280;44550;43.864;25.986;2022-09-25T18:13:15;100986.69;;;18.53;52.48
58245;BME280;44550;43.864;25.986;2022-09-25T18:17:18;100950.63;;;18.07;52.74
58245;BME280;44550;43.864;25.986;2022-09-25T18:21:18;100994.75;;;18.07;52.71
58245;BME280;44550;43.864;25.986;2022-09-25T18:25:37;100999.09;;;18.10;52.63
58245;BME280;44550;43.864;25.986;2022-09-25T18:29:38;100998.75;;;18.26;51.87
58245;BME280;44550;43.864;25.986;2022-09-25T18:33:40;100988.34;;;18.17;51.87
58245;BME280;44550;43.864;25.986;2022-09-25T18:37:43;101003.66;;;18.03;49.82
58245;BME280;44550;43.864;25.986;2022-09-25T18:41:44;100999.22;;;18.03;47.55
58245;BME280;44550;43.864;25.986;2022-09-25T18:45:47;100975.44;;;18.02;45.54
58245;BME280;44550;43.864;25.986;2022-09-25T18:49:50;100976.19;;;18.08;45.24
58245;BME280;44550;43.864;25.986;2022-09-25T18:53:50;100981.28;;;18.18;44.81
58245;BME280;44550;43.864;25.986;2022-09-25T18:57:50;100980.28;;;18.25;43.92
58245;BME280;44550;43.864;25.986;2022-09-25T19:01:50;100970.63;;;18.21;43.98
58245;BME280;44550;43.864;25.986;2022-09-25T19:06:00;100940.00;;;18.09;44.37
58245;BME280;44550;43.864;25.986;2022-09-25T19:10:00;100950.19;;;18.27;44.33
58245;BME280;44550;43.864;25.986;2022-09-25T19:14:05;100982.94;;;18.64;44.48
58245;BME280;44550;43.864;25.986;2022-09-25T19:18:05;100983.69;;;18.72;43.87
58245;BME280;44550;43.864;25.986;2022-09-25T19:22:13;100989.16;;;18.63;45.33
58245;BME280;44550;43.864;25.986;2022-09-25T19:26:15;100946.75;;;18.24;45.64
58245;BME280;44550;43.864;25.986;2022-09-25T19:30:19;100917.41;;;18.35;45.24
58245;BME280;44550;43.864;25.986;2022-09-25T19:34:21;100964.16;;;18.76;46.15
58245;BME280;44550;43.864;25.986;2022-09-25T19:38:25;100984.75;;;18.62;46.73
58245;BME280;44550;43.864;25.986;2022-09-25T19:42:26;100993.56;;;18.22;47.33
58245;BME280;44550;43.864;25.986;2022-09-25T19:46:33;100944.56;;;18.02;46.66
58245;BME280;44550;43.864;25.986;2022-09-25T19:50:33;100975.22;;;18.93;45.70
58245;BME280;44550;43.864;25.986;2022-09-25T19:54:35;100986.22;;;19.48;44.33
58245;BME280;44550;43.864;25.986;2022-09-25T19:58:36;100982.75;;;19.46;45.32
58245;BME280;44550;43.864;25.986;2022-09-25T20:02:36;100984.22;;;19.56;45.54
58245;BME280;44550;43.864;25.986;2022-09-25T20:06:38;100985.53;;;19.76;44.94
58245;BME280;44550;43.864;25.986;2022-09-25T20:10:40;100982.63;;;19.51;45.92
58245;BME280;44550;43.864;25.986;2022-09-25T20:14:40;100987.47;;;19.33;46.49
58245;BME280;44550;43.864;25.986;2022-09-25T20:18:41;100989.53;;;19.22;48.02
58245;BME280;44550;43.864;25.986;2022-09-25T20:22:44;100927.78;;;18.84;48.49
58245;BME280;44550;43.864;25.986;2022-09-25T20:26:51;100975.06;;;19.01;49.23
58245;BME280;44550;43.864;25.986;2022-09-25T20:30:51;100961.94;;;18.95;49.49
58245;BME280;44550;43.864;25.986;2022-09-25T20:34:51;100957.00;;;18.80;49.90
58245;BME280;44550;43.864;25.986;2022-09-25T20:38:53;100954.34;;;18.81;49.93
58245;BME280;44550;43.864;25.986;2022-09-25T20:42:56;100963.72;;;18.94;49.64
58245;BME280;44550;43.864;25.986;2022-09-25T20:46:58;100952.56;;;18.82;49.25
58245;BME280;44550;43.864;25.986;2022-09-25T20:50:58;100946.91;;;18.57;49.82
58245;BME280;44550;43.864;25.986;2022-09-25T20:54:58;100956.28;;;18.73;50.11
58245;BME280;44550;43.864;25.986;2022-09-25T20:59:01;100963.38;;;18.69;50.14
58245;BME280;44550;43.864;25.986;2022-09-25T21:03:01;100971.47;;;18.63;50.65
58245;BME280;44550;43.864;25.986;2022-09-25T21:07:01;100979.69;;;18.91;50.37
58245;BME280;44550;43.864;25.986;2022-09-25T21:11:02;100973.09;;;18.72;50.21
58245;BME280;44550;43.864;25.986;2022-09-25T21:15:07;100941.19;;;18.36;51.34
58245;BME280;44550;43.864;25.986;2022-09-25T21:19:11;100903.78;;;18.11;51.65
58245;BME280;44550;43.864;25.986;2022-09-25T21:23:17;100912.75;;;18.05;52.00
58245;BME280;44550;43.864;25.986;2022-09-25T21:27:22;100912.75;;;18.05;52.10